sensor_id;sensor_type;location;lat;lon;timestamp;P1;durP1;ratioP1;P2;durP2;ratioP2
3712;SDS011;1872;51.406;6.856;2022-11-20T00:02:08;28.33;;;18.13;;
3712;SDS011;1872;51.406;6.856;2022-11-20T00:04:34;28.20;;;16.50;;
3712;SDS011;1872;51.406;6.856;2022-11-20T00:07:00;28.27;;;16.83;;
3712;SDS011;1872;51.406;6.856;2022-11-20T00:09:25;25.40;;;15.47;;
3712;SDS011;1872;51.406;6.856;2022-11-20T00:11:51;26.10;;;16.07;;
3712;SDS011;1872;51.406;6.856;2022-11-20T00:14:17;22.07;;;16.07;;
3712;SDS011;1872;51.406;6.856;2022-11-20T00:16:42;22.57;;;15.87;;
3712;SDS011;1872;51.406;6.856;2022-11-20T00:19:08;29.70;;;16.93;;
3712;SDS011;1872;51.406;6.856;2022-11-20T00:21:34;24.87;;;15.77;;
3712;SDS011;1872;51.406;6.856;2022-11-20T00:24:00;22.17;;;16.03;;
3712;SDS011;1872;51.406;6.856;2022-11-20T00:26:26;25.97;;;16.30;;
3712;SDS011;1872;51.406;6.856;2022-11-20T00:28:53;24.20;;;16.97;;
3712;SDS011;1872;51.406;6.856;2022-11-20T00:31:21;26.20;;;15.70;;
3712;SDS011;1872;51.406;6.856;2022-11-20T00:33:46;25.40;;;15.80;;
3712;SDS011;1872;51.406;6.856;2022-11-20T00:36:14;29.37;;;17.77;;
3712;SDS011;1872;51.406;6.856;2022-11-20T00:38:41;21.70;;;14.80;;
3712;SDS011;1872;51.406;6.856;2022-11-20T00:41:08;25.60;;;15.47;;
3712;SDS011;1872;51.406;6.856;2022-11-20T00:43:36;22.97;;;15.73;;
3712;SDS011;1872;51.406;6.856;2022-11-20T00:46:24;22.77;;;15.13;;
3712;SDS011;1872;51.406;6.856;2022-11-20T00:48:50;30.40;;;16.57;;
3712;SDS011;1872;51.406;6.856;2022-11-20T00:51:17;27.53;;;19.00;;
3712;SDS011;1872;51.406;6.856;2022-11-20T00:53:44;27.30;;;16.67;;
3712;SDS011;1872;51.406;6.856;2022-11-20T00:56:11;29.10;;;17.33;;
3712;SDS011;1872;51.406;6.856;2022-11-20T00:58:39;20.83;;;15.90;;
3712;SDS011;1872;51.406;6.856;2022-11-20T01:01:10;24.00;;;16.93;;
3712;SDS011;1872;51.406;6.856;2022-11-20T01:03:38;28.00;;;17.70;;
3712;SDS011;1872;51.406;6.856;2022-11-20T01:06:07;24.77;;;15.63;;
3712;SDS011;1872;51.406;6.856;2022-11-20T01:08:44;20.23;;;15.03;;
3712;SDS011;1872;51.406;6.856;2022-11-20T01:11:11;22.80;;;15.23;;
3712;SDS011;1872;51.406;6.856;2022-11-20T01:13:42;23.80;;;16.13;;
3712;SDS011;1872;51.406;6.856;2022-11-20T01:16:20;22.40;;;16.17;;
3712;SDS011;1872;51.406;6.856;2022-11-20T01:18:54;26.23;;;16.37;;
3712;SDS011;1872;51.406;6.856;2022-11-20T01:21:23;24.30;;;16.20;;
3712;SDS011;1872;51.406;6.856;2022-11-20T01:23:51;24.77;;;16.30;;
3712;SDS011;1872;51.406;6.856;2022-11-20T01:26:19;22.53;;;15.27;;
3712;SDS011;1872;51.406;6.856;2022-11-20T01:28:46;23.63;;;15.67;;
3712;SDS011;1872;51.406;6.856;2022-11-20T01:31:16;29.17;;;17.20;;
3712;SDS011;1872;51.406;6.856;2022-11-20T01:33:44;28.20;;;15.93;;
3712;SDS011;1872;51.406;6.856;2022-11-20T01:36:11;23.80;;;15.87;;
3712;SDS011;1872;51.406;6.856;2022-11-20T01:38:38;23.77;;;16.10;;
3712;SDS011;1872;51.406;6.856;2022-11-20T01:41:04;27.40;;;17.23;;
3712;SDS011;1872;51.406;6.856;2022-11-20T01:43:30;23.20;;;15.30;;
3712;SDS011;1872;51.406;6.856;2022-11-20T01:45:58;24.57;;;15.50;;
3712;SDS011;1872;51.406;6.856;2022-11-20T01:48:25;25.97;;;15.73;;
3712;SDS011;1872;51.406;6.856;2022-11-20T01:50:57;25.83;;;16.40;;
3712;SDS011;1872;51.406;6.856;2022-11-20T01:53:25;27.33;;;16.93;;
3712;SDS011;1872;51.406;6.856;2022-11-20T01:55:56;27.27;;;16.50;;
3712;SDS011;1872;51.406;6.856;2022-11-20T01:58:25;27.33;;;15.90;;
3712;SDS011;1872;51.406;6.856;2022-11-20T02:00:55;27.27;;;16.20;;
3712;SDS011;1872;51.406;6.856;2022-11-20T02:03:20;25.50;;;16.23;;
3712;SDS011;1872;51.406;6.856;2022-11-20T02:05:51;25.00;;;16.63;;
3712;SDS011;1872;51.406;6.856;2022-11-20T02:08:17;24.43;;;15.57;;
3712;SDS011;1872;51.406;6.856;2022-11-20T02:10:44;23.70;;;16.50;;
3712;SDS011;1872;51.406;6.856;2022-11-20T02:13:09;26.77;;;17.03;;
3712;SDS011;1872;51.406;6.856;2022-11-20T02:15:54;26.20;;;15.60;;
3712;SDS011;1872;51.406;6.856;2022-11-20T02:18:20;22.97;;;15.53;;
3712;SDS011;1872;51.406;6.856;2022-11-20T02:20:48;25.93;;;15.63;;
3712;SDS011;1872;51.406;6.856;2022-11-20T02:23:40;24.93;;;16.00;;
3712;SDS011;1872;51.406;6.856;2022-11-20T02:26:09;26.87;;;15.70;;
3712;SDS011;1872;51.406;6.856;2022-11-20T02:28:37;22.37;;;14.80;;
3712;SDS011;1872;51.406;6.856;2022-11-20T02:31:03;29.43;;;15.70;;
3712;SDS011;1872;51.406;6.856;2022-11-20T02:33:30;23.47;;;16.07;;
3712;SDS011;1872;51.406;6.856;2022-11-20T02:35:56;22.77;;;16.27;;
3712;SDS011;1872;51.406;6.856;2022-11-20T02:38:21;24.40;;;16.13;;
3712;SDS011;1872;51.406;6.856;2022-11-20T02:40:47;25.40;;;15.50;;
3712;SDS011;1872;51.406;6.856;2022-11-20T02:43:12;26.43;;;16.17;;
3712;SDS011;1872;51.406;6.856;2022-11-20T02:45:40;25.00;;;15.97;;
3712;SDS011;1872;51.406;6.856;2022-11-20T02:48:06;24.67;;;15.63;;
3712;SDS011;1872;51.406;6.856;2022-11-20T02:50:32;22.80;;;16.27;;
3712;SDS011;1872;51.406;6.856;2022-11-20T02:52:58;24.40;;;16.97;;
3712;SDS011;1872;51.406;6.856;2022-11-20T02:55:24;28.10;;;17.50;;
3712;SDS011;1872;51.406;6.856;2022-11-20T02:57:49;26.23;;;17.50;;
3712;SDS011;1872;51.406;6.856;2022-11-20T03:00:15;23.43;;;15.17;;
3712;SDS011;1872;51.406;6.856;2022-11-20T03:02:41;31.47;;;17.60;;
3712;SDS011;1872;51.406;6.856;2022-11-20T03:05:06;25.30;;;15.93;;
3712;SDS011;1872;51.406;6.856;2022-11-20T03:07:32;22.20;;;15.17;;
3712;SDS011;1872;51.406;6.856;2022-11-20T03:09:58;24.80;;;18.37;;
3712;SDS011;1872;51.406;6.856;2022-11-20T03:12:23;24.80;;;16.43;;
3712;SDS011;1872;51.406;6.856;2022-11-20T03:14:49;26.30;;;16.53;;
3712;SDS011;1872;51.406;6.856;2022-11-20T03:17:15;24.50;;;15.60;;
3712;SDS011;1872;51.406;6.856;2022-11-20T03:19:41;26.33;;;16.27;;
3712;SDS011;1872;51.406;6.856;2022-11-20T03:22:07;27.13;;;16.80;;
3712;SDS011;1872;51.406;6.856;2022-11-20T03:24:32;25.37;;;16.40;;
3712;SDS011;1872;51.406;6.856;2022-11-20T03:26:58;24.90;;;16.50;;
3712;SDS011;1872;51.406;6.856;2022-11-20T03:29:24;27.47;;;17.73;;
3712;SDS011;1872;51.406;6.856;2022-11-20T03:31:50;26.40;;;16.40;;
3712;SDS011;1872;51.406;6.856;2022-11-20T03:34:15;26.00;;;16.10;;
3712;SDS011;1872;51.406;6.856;2022-11-20T03:36:41;22.63;;;16.30;;
3712;SDS011;1872;51.406;6.856;2022-11-20T03:39:08;24.90;;;16.03;;
3712;SDS011;1872;51.406;6.856;2022-11-20T03:41:37;24.30;;;16.70;;
3712;SDS011;1872;51.406;6.856;2022-11-20T03:44:06;27.63;;;16.33;;
3712;SDS011;1872;51.406;6.856;2022-11-20T03:46:33;21.47;;;16.27;;
3712;SDS011;1872;51.406;6.856;2022-11-20T03:48:59;27.30;;;17.17;;
3712;SDS011;1872;51.406;6.856;2022-11-20T03:51:29;22.10;;;16.20;;
3712;SDS011;1872;51.406;6.856;2022-11-20T03:53:57;26.87;;;16.00;;
3712;SDS011;1872;51.406;6.856;2022-11-20T03:56:28;25.67;;;16.63;;
3712;SDS011;1872;51.406;6.856;2022-11-20T03:58:55;27.03;;;17.07;;
3712;SDS011;1872;51.406;6.856;2022-11-20T04:01:22;27.50;;;16.97;;
3712;SDS011;1872;51.406;6.856;2022-11-20T04:03:51;26.80;;;17.63;;
3712;SDS011;1872;51.406;6.856;2022-11-20T04:06:19;23.93;;;15.93;;
3712;SDS011;1872;51.406;6.856;2022-11-20T04:08:46;23.13;;;15.10;;
3712;SDS011;1872;51.406;6.856;2022-11-20T04:11:13;27.93;;;16.77;;
3712;SDS011;1872;51.406;6.856;2022-11-20T04:13:41;26.23;;;16.83;;
3712;SDS011;1872;51.406;6.856;2022-11-20T04:16:08;20.20;;;15.00;;
3712;SDS011;1872;51.406;6.856;2022-11-20T04:18:35;23.90;;;17.27;;
3712;SDS011;1872;51.406;6.856;2022-11-20T04:21:01;22.97;;;15.53;;
3712;SDS011;1872;51.406;6.856;2022-11-20T04:23:28;27.20;;;16.37;;
3712;SDS011;1872;51.406;6.856;2022-11-20T04:25:54;22.53;;;15.60;;
3712;SDS011;1872;51.406;6.856;2022-11-20T04:28:25;23.80;;;15.00;;
3712;SDS011;1872;51.406;6.856;2022-11-20T04:30:50;28.10;;;17.33;;
3712;SDS011;1872;51.406;6.856;2022-11-20T04:33:16;21.37;;;15.93;;
3712;SDS011;1872;51.406;6.856;2022-11-20T04:35:42;24.80;;;17.30;;
3712;SDS011;1872;51.406;6.856;2022-11-20T04:38:09;25.50;;;16.83;;
3712;SDS011;1872;51.406;6.856;2022-11-20T04:40:34;24.07;;;15.07;;
3712;SDS011;1872;51.406;6.856;2022-11-20T04:43:00;23.10;;;15.97;;
3712;SDS011;1872;51.406;6.856;2022-11-20T04:45:25;27.13;;;18.07;;
3712;SDS011;1872;51.406;6.856;2022-11-20T04:47:52;26.70;;;17.03;;
3712;SDS011;1872;51.406;6.856;2022-11-20T04:50:18;24.80;;;17.73;;
3712;SDS011;1872;51.406;6.856;2022-11-20T04:52:43;27.13;;;18.80;;
3712;SDS011;1872;51.406;6.856;2022-11-20T04:55:09;26.57;;;18.10;;
3712;SDS011;1872;51.406;6.856;2022-11-20T04:57:34;25.20;;;16.90;;
3712;SDS011;1872;51.406;6.856;2022-11-20T05:00:00;27.13;;;16.67;;
3712;SDS011;1872;51.406;6.856;2022-11-20T05:02:26;22.37;;;16.10;;
3712;SDS011;1872;51.406;6.856;2022-11-20T05:04:51;25.83;;;17.33;;
3712;SDS011;1872;51.406;6.856;2022-11-20T05:07:17;29.53;;;16.37;;
3712;SDS011;1872;51.406;6.856;2022-11-20T05:09:42;24.80;;;16.83;;
3712;SDS011;1872;51.406;6.856;2022-11-20T05:12:08;26.03;;;17.23;;
3712;SDS011;1872;51.406;6.856;2022-11-20T05:14:34;22.23;;;16.27;;
3712;SDS011;1872;51.406;6.856;2022-11-20T05:17:00;27.07;;;16.47;;
3712;SDS011;1872;51.406;6.856;2022-11-20T05:19:26;25.20;;;16.30;;
3712;SDS011;1872;51.406;6.856;2022-11-20T05:21:51;25.97;;;16.37;;
3712;SDS011;1872;51.406;6.856;2022-11-20T05:24:17;25.40;;;16.27;;
3712;SDS011;1872;51.406;6.856;2022-11-20T05:26:42;25.70;;;16.20;;
3712;SDS011;1872;51.406;6.856;2022-11-20T05:29:11;26.00;;;17.10;;
3712;SDS011;1872;51.406;6.856;2022-11-20T05:31:38;24.70;;;15.77;;
3712;SDS011;1872;51.406;6.856;2022-11-20T05:34:05;20.93;;;14.10;;
3712;SDS011;1872;51.406;6.856;2022-11-20T05:36:31;24.00;;;15.60;;
3712;SDS011;1872;51.406;6.856;2022-11-20T05:38:57;23.37;;;15.70;;
3712;SDS011;1872;51.406;6.856;2022-11-20T05:41:23;26.00;;;16.53;;
3712;SDS011;1872;51.406;6.856;2022-11-20T05:43:48;23.37;;;15.70;;
3712;SDS011;1872;51.406;6.856;2022-11-20T05:46:15;23.10;;;16.60;;
3712;SDS011;1872;51.406;6.856;2022-11-20T05:48:43;26.90;;;16.70;;
3712;SDS011;1872;51.406;6.856;2022-11-20T05:51:11;24.33;;;15.70;;
3712;SDS011;1872;51.406;6.856;2022-11-20T05:53:38;23.43;;;15.67;;
3712;SDS011;1872;51.406;6.856;2022-11-20T05:56:05;28.30;;;17.80;;
3712;SDS011;1872;51.406;6.856;2022-11-20T05:58:32;22.10;;;15.97;;
3712;SDS011;1872;51.406;6.856;2022-11-20T06:01:05;25.90;;;16.20;;
3712;SDS011;1872;51.406;6.856;2022-11-20T06:03:38;21.07;;;15.97;;
3712;SDS011;1872;51.406;6.856;2022-11-20T06:06:04;28.30;;;17.03;;
3712;SDS011;1872;51.406;6.856;2022-11-20T06:08:30;25.40;;;16.80;;
3712;SDS011;1872;51.406;6.856;2022-11-20T06:10:57;26.53;;;16.87;;
3712;SDS011;1872;51.406;6.856;2022-11-20T06:13:23;27.60;;;17.57;;
3712;SDS011;1872;51.406;6.856;2022-11-20T06:15:52;22.97;;;17.10;;
3712;SDS011;1872;51.406;6.856;2022-11-20T06:18:18;23.00;;;15.93;;
3712;SDS011;1872;51.406;6.856;2022-11-20T06:20:45;28.67;;;17.77;;
3712;SDS011;1872;51.406;6.856;2022-11-20T06:23:10;27.87;;;18.07;;
3712;SDS011;1872;51.406;6.856;2022-11-20T06:25:37;27.20;;;17.40;;
3712;SDS011;1872;51.406;6.856;2022-11-20T06:28:04;26.93;;;16.13;;
3712;SDS011;1872;51.406;6.856;2022-11-20T06:30:29;27.63;;;17.30;;
3712;SDS011;1872;51.406;6.856;2022-11-20T06:32:55;26.13;;;16.97;;
3712;SDS011;1872;51.406;6.856;2022-11-20T06:35:20;26.50;;;17.67;;
3712;SDS011;1872;51.406;6.856;2022-11-20T06:37:46;22.83;;;17.93;;
3712;SDS011;1872;51.406;6.856;2022-11-20T06:40:12;26.60;;;19.27;;
3712;SDS011;1872;51.406;6.856;2022-11-20T06:42:37;28.20;;;18.57;;
3712;SDS011;1872;51.406;6.856;2022-11-20T06:45:03;28.47;;;19.37;;
3712;SDS011;1872;51.406;6.856;2022-11-20T06:47:29;29.80;;;18.83;;
3712;SDS011;1872;51.406;6.856;2022-11-20T06:49:55;35.37;;;20.97;;
3712;SDS011;1872;51.406;6.856;2022-11-20T06:52:20;28.77;;;21.60;;
3712;SDS011;1872;51.406;6.856;2022-11-20T06:54:46;32.07;;;22.80;;
3712;SDS011;1872;51.406;6.856;2022-11-20T06:57:12;27.93;;;18.40;;
3712;SDS011;1872;51.406;6.856;2022-11-20T06:59:37;29.63;;;20.50;;
3712;SDS011;1872;51.406;6.856;2022-11-20T07:02:03;28.83;;;20.07;;
3712;SDS011;1872;51.406;6.856;2022-11-20T07:04:29;29.53;;;20.07;;
3712;SDS011;1872;51.406;6.856;2022-11-20T07:06:54;32.53;;;20.10;;
3712;SDS011;1872;51.406;6.856;2022-11-20T07:09:20;25.13;;;19.70;;
3712;SDS011;1872;51.406;6.856;2022-11-20T07:11:45;30.33;;;20.97;;
3712;SDS011;1872;51.406;6.856;2022-11-20T07:14:11;29.43;;;19.43;;
3712;SDS011;1872;51.406;6.856;2022-11-20T07:16:36;30.20;;;21.00;;
3712;SDS011;1872;51.406;6.856;2022-11-20T07:19:02;32.10;;;20.57;;
3712;SDS011;1872;51.406;6.856;2022-11-20T07:21:28;30.77;;;19.67;;
3712;SDS011;1872;51.406;6.856;2022-11-20T07:23:53;27.17;;;19.47;;
3712;SDS011;1872;51.406;6.856;2022-11-20T07:26:19;25.57;;;18.40;;
3712;SDS011;1872;51.406;6.856;2022-11-20T07:28:45;28.33;;;18.67;;
3712;SDS011;1872;51.406;6.856;2022-11-20T07:31:10;30.00;;;20.10;;
3712;SDS011;1872;51.406;6.856;2022-11-20T07:33:37;32.13;;;21.20;;
3712;SDS011;1872;51.406;6.856;2022-11-20T07:36:03;30.13;;;19.73;;
3712;SDS011;1872;51.406;6.856;2022-11-20T07:38:30;28.37;;;19.30;;
3712;SDS011;1872;51.406;6.856;2022-11-20T07:40:56;31.10;;;21.80;;
3712;SDS011;1872;51.406;6.856;2022-11-20T07:43:22;30.33;;;19.63;;
3712;SDS011;1872;51.406;6.856;2022-11-20T07:45:49;27.80;;;18.70;;
3712;SDS011;1872;51.406;6.856;2022-11-20T07:48:15;25.10;;;18.13;;
3712;SDS011;1872;51.406;6.856;2022-11-20T07:50:41;31.43;;;19.30;;
3712;SDS011;1872;51.406;6.856;2022-11-20T07:53:07;23.97;;;18.07;;
3712;SDS011;1872;51.406;6.856;2022-11-20T07:55:32;28.40;;;18.97;;
3712;SDS011;1872;51.406;6.856;2022-11-20T07:57:58;27.63;;;18.30;;
3712;SDS011;1872;51.406;6.856;2022-11-20T08:00:24;27.33;;;17.53;;
3712;SDS011;1872;51.406;6.856;2022-11-20T08:02:51;26.47;;;17.13;;
3712;SDS011;1872;51.406;6.856;2022-11-20T08:05:16;26.33;;;18.90;;
3712;SDS011;1872;51.406;6.856;2022-11-20T08:07:43;26.90;;;18.20;;
3712;SDS011;1872;51.406;6.856;2022-11-20T08:10:10;25.10;;;16.87;;
3712;SDS011;1872;51.406;6.856;2022-11-20T08:12:47;30.07;;;19.13;;
3712;SDS011;1872;51.406;6.856;2022-11-20T08:15:36;25.00;;;18.70;;
3712;SDS011;1872;51.406;6.856;2022-11-20T08:18:09;23.20;;;16.90;;
3712;SDS011;1872;51.406;6.856;2022-11-20T08:20:36;25.87;;;18.70;;
3712;SDS011;1872;51.406;6.856;2022-11-20T08:23:04;25.73;;;18.30;;
3712;SDS011;1872;51.406;6.856;2022-11-20T08:25:30;24.20;;;17.90;;
3712;SDS011;1872;51.406;6.856;2022-11-20T08:28:00;28.70;;;18.70;;
3712;SDS011;1872;51.406;6.856;2022-11-20T08:30:29;25.23;;;17.70;;
3712;SDS011;1872;51.406;6.856;2022-11-20T08:32:59;24.97;;;18.53;;
3712;SDS011;1872;51.406;6.856;2022-11-20T08:35:32;24.73;;;19.13;;
3712;SDS011;1872;51.406;6.856;2022-11-20T08:38:02;28.33;;;19.57;;
3712;SDS011;1872;51.406;6.856;2022-11-20T08:40:28;30.80;;;20.10;;
3712;SDS011;1872;51.406;6.856;2022-11-20T08:42:54;28.17;;;21.53;;
3712;SDS011;1872;51.406;6.856;2022-11-20T08:45:20;38.23;;;22.37;;
3712;SDS011;1872;51.406;6.856;2022-11-20T08:47:45;30.87;;;19.87;;
3712;SDS011;1872;51.406;6.856;2022-11-20T08:50:12;31.57;;;20.13;;
3712;SDS011;1872;51.406;6.856;2022-11-20T08:52:39;27.67;;;19.20;;
3712;SDS011;1872;51.406;6.856;2022-11-20T08:55:05;37.20;;;23.40;;
3712;SDS011;1872;51.406;6.856;2022-11-20T08:57:32;33.37;;;21.67;;
3712;SDS011;1872;51.406;6.856;2022-11-20T08:59:59;27.77;;;19.80;;
3712;SDS011;1872;51.406;6.856;2022-11-20T09:02:25;29.33;;;19.60;;
3712;SDS011;1872;51.406;6.856;2022-11-20T09:04:51;27.53;;;19.40;;
3712;SDS011;1872;51.406;6.856;2022-11-20T09:07:18;32.03;;;21.23;;
3712;SDS011;1872;51.406;6.856;2022-11-20T09:09:44;30.73;;;21.33;;
3712;SDS011;1872;51.406;6.856;2022-11-20T09:12:09;30.33;;;21.03;;
3712;SDS011;1872;51.406;6.856;2022-11-20T09:14:35;29.93;;;19.10;;
3712;SDS011;1872;51.406;6.856;2022-11-20T09:17:01;32.07;;;19.57;;
3712;SDS011;1872;51.406;6.856;2022-11-20T09:19:26;28.53;;;18.73;;
3712;SDS011;1872;51.406;6.856;2022-11-20T09:21:52;27.33;;;19.37;;
3712;SDS011;1872;51.406;6.856;2022-11-20T09:24:18;26.53;;;18.43;;
3712;SDS011;1872;51.406;6.856;2022-11-20T09:26:45;26.53;;;17.90;;
3712;SDS011;1872;51.406;6.856;2022-11-20T09:29:11;27.30;;;18.67;;
3712;SDS011;1872;51.406;6.856;2022-11-20T09:31:36;26.80;;;18.27;;
3712;SDS011;1872;51.406;6.856;2022-11-20T09:34:02;28.27;;;18.90;;
3712;SDS011;1872;51.406;6.856;2022-11-20T09:36:28;27.97;;;17.83;;
3712;SDS011;1872;51.406;6.856;2022-11-20T09:38:53;31.77;;;18.17;;
3712;SDS011;1872;51.406;6.856;2022-11-20T09:46:53;26.33;;;17.87;;
3712;SDS011;1872;51.406;6.856;2022-11-20T09:54:37;23.60;;;15.47;;
3712;SDS011;1872;51.406;6.856;2022-11-20T09:57:09;27.90;;;16.67;;
3712;SDS011;1872;51.406;6.856;2022-11-20T09:59:39;25.20;;;17.30;;
3712;SDS011;1872;51.406;6.856;2022-11-20T10:07:37;25.17;;;17.53;;
3712;SDS011;1872;51.406;6.856;2022-11-20T10:10:28;21.40;;;16.23;;
3712;SDS011;1872;51.406;6.856;2022-11-20T10:21:30;20.80;;;15.80;;
3712;SDS011;1872;51.406;6.856;2022-11-20T10:27:28;23.90;;;16.17;;
3712;SDS011;1872;51.406;6.856;2022-11-20T10:30:14;25.20;;;16.60;;
3712;SDS011;1872;51.406;6.856;2022-11-20T10:32:43;22.80;;;16.57;;
3712;SDS011;1872;51.406;6.856;2022-11-20T10:37:58;25.77;;;17.00;;
3712;SDS011;1872;51.406;6.856;2022-11-20T10:43:00;24.40;;;16.97;;
3712;SDS011;1872;51.406;6.856;2022-11-20T10:48:27;24.30;;;15.60;;
3712;SDS011;1872;51.406;6.856;2022-11-20T10:56:20;23.77;;;15.30;;
3712;SDS011;1872;51.406;6.856;2022-11-20T10:59:11;23.17;;;15.10;;
3712;SDS011;1872;51.406;6.856;2022-11-20T11:01:56;24.60;;;16.37;;
3712;SDS011;1872;51.406;6.856;2022-11-20T11:07:10;20.50;;;13.07;;
3712;SDS011;1872;51.406;6.856;2022-11-20T11:09:52;22.00;;;14.70;;
3712;SDS011;1872;51.406;6.856;2022-11-20T11:12:19;23.30;;;14.40;;
3712;SDS011;1872;51.406;6.856;2022-11-20T11:14:48;21.63;;;12.60;;
3712;SDS011;1872;51.406;6.856;2022-11-20T11:17:26;20.83;;;14.03;;
3712;SDS011;1872;51.406;6.856;2022-11-20T11:20:00;20.03;;;13.40;;
3712;SDS011;1872;51.406;6.856;2022-11-20T11:22:28;18.80;;;12.90;;
3712;SDS011;1872;51.406;6.856;2022-11-20T11:24:56;21.97;;;13.10;;
3712;SDS011;1872;51.406;6.856;2022-11-20T11:27:21;20.90;;;13.90;;
3712;SDS011;1872;51.406;6.856;2022-11-20T11:29:47;22.17;;;12.93;;
3712;SDS011;1872;51.406;6.856;2022-11-20T11:32:20;22.43;;;13.80;;
3712;SDS011;1872;51.406;6.856;2022-11-20T11:35:00;21.23;;;13.57;;
3712;SDS011;1872;51.406;6.856;2022-11-20T11:37:34;22.00;;;13.87;;
3712;SDS011;1872;51.406;6.856;2022-11-20T11:40:01;22.17;;;13.80;;
3712;SDS011;1872;51.406;6.856;2022-11-20T11:42:46;19.77;;;13.80;;
3712;SDS011;1872;51.406;6.856;2022-11-20T11:45:22;22.33;;;14.27;;
3712;SDS011;1872;51.406;6.856;2022-11-20T11:47:48;23.83;;;14.50;;
3712;SDS011;1872;51.406;6.856;2022-11-20T11:50:18;25.80;;;13.97;;
3712;SDS011;1872;51.406;6.856;2022-11-20T11:55:58;23.03;;;13.00;;
3712;SDS011;1872;51.406;6.856;2022-11-20T12:04:10;28.67;;;15.20;;
3712;SDS011;1872;51.406;6.856;2022-11-20T12:07:14;26.00;;;14.23;;
3712;SDS011;1872;51.406;6.856;2022-11-20T12:09:47;22.83;;;14.00;;
3712;SDS011;1872;51.406;6.856;2022-11-20T12:15:11;20.40;;;13.90;;
3712;SDS011;1872;51.406;6.856;2022-11-20T12:17:41;23.07;;;13.80;;
3712;SDS011;1872;51.406;6.856;2022-11-20T12:20:11;26.13;;;14.23;;
3712;SDS011;1872;51.406;6.856;2022-11-20T12:23:02;22.50;;;14.07;;
3712;SDS011;1872;51.406;6.856;2022-11-20T12:25:50;21.07;;;13.83;;
3712;SDS011;1872;51.406;6.856;2022-11-20T12:28:24;22.60;;;13.67;;
3712;SDS011;1872;51.406;6.856;2022-11-20T12:39:21;23.80;;;13.70;;
3712;SDS011;1872;51.406;6.856;2022-11-20T12:45:18;21.23;;;13.90;;
3712;SDS011;1872;51.406;6.856;2022-11-20T12:48:12;24.00;;;13.73;;
3712;SDS011;1872;51.406;6.856;2022-11-20T12:56:47;21.57;;;13.50;;
3712;SDS011;1872;51.406;6.856;2022-11-20T12:59:43;25.60;;;13.57;;
3712;SDS011;1872;51.406;6.856;2022-11-20T13:02:23;24.50;;;14.87;;
3712;SDS011;1872;51.406;6.856;2022-11-20T13:07:22;22.07;;;14.63;;
3712;SDS011;1872;51.406;6.856;2022-11-20T13:09:50;23.67;;;14.37;;
3712;SDS011;1872;51.406;6.856;2022-11-20T13:12:24;25.07;;;15.23;;
3712;SDS011;1872;51.406;6.856;2022-11-20T13:17:57;25.40;;;14.60;;
3712;SDS011;1872;51.406;6.856;2022-11-20T13:20:25;22.70;;;14.70;;
3712;SDS011;1872;51.406;6.856;2022-11-20T13:22:52;25.60;;;15.87;;
3712;SDS011;1872;51.406;6.856;2022-11-20T13:25:26;23.60;;;15.03;;
3712;SDS011;1872;51.406;6.856;2022-11-20T13:27:53;23.60;;;14.90;;
3712;SDS011;1872;51.406;6.856;2022-11-20T13:30:24;20.77;;;14.23;;
3712;SDS011;1872;51.406;6.856;2022-11-20T13:33:04;24.30;;;15.83;;
3712;SDS011;1872;51.406;6.856;2022-11-20T13:35:34;25.63;;;15.30;;
3712;SDS011;1872;51.406;6.856;2022-11-20T13:38:05;29.30;;;16.70;;
3712;SDS011;1872;51.406;6.856;2022-11-20T13:40:50;23.63;;;16.97;;
3712;SDS011;1872;51.406;6.856;2022-11-20T13:43:46;29.50;;;18.10;;
3712;SDS011;1872;51.406;6.856;2022-11-20T13:46:13;25.33;;;16.10;;
3712;SDS011;1872;51.406;6.856;2022-11-20T13:57:09;25.20;;;15.20;;
3712;SDS011;1872;51.406;6.856;2022-11-20T13:59:50;24.13;;;16.33;;
3712;SDS011;1872;51.406;6.856;2022-11-20T14:02:19;24.87;;;15.53;;
3712;SDS011;1872;51.406;6.856;2022-11-20T14:04:50;34.77;;;17.33;;
3712;SDS011;1872;51.406;6.856;2022-11-20T14:07:18;26.47;;;16.57;;
3712;SDS011;1872;51.406;6.856;2022-11-20T14:09:50;26.57;;;15.93;;
3712;SDS011;1872;51.406;6.856;2022-11-20T14:12:19;27.23;;;16.43;;
3712;SDS011;1872;51.406;6.856;2022-11-20T14:14:50;28.30;;;16.17;;
3712;SDS011;1872;51.406;6.856;2022-11-20T14:17:19;25.63;;;15.10;;
3712;SDS011;1872;51.406;6.856;2022-11-20T14:19:50;25.33;;;15.87;;
3712;SDS011;1872;51.406;6.856;2022-11-20T14:25:04;30.73;;;17.77;;
3712;SDS011;1872;51.406;6.856;2022-11-20T14:27:40;27.97;;;17.10;;
3712;SDS011;1872;51.406;6.856;2022-11-20T14:30:14;27.37;;;16.00;;
3712;SDS011;1872;51.406;6.856;2022-11-20T14:32:44;26.90;;;17.00;;
3712;SDS011;1872;51.406;6.856;2022-11-20T14:37:50;29.77;;;17.93;;
3712;SDS011;1872;51.406;6.856;2022-11-20T14:42:49;29.83;;;17.70;;
3712;SDS011;1872;51.406;6.856;2022-11-20T14:45:15;26.53;;;17.63;;
3712;SDS011;1872;51.406;6.856;2022-11-20T14:47:41;24.43;;;16.37;;
3712;SDS011;1872;51.406;6.856;2022-11-20T14:50:12;24.70;;;17.77;;
3712;SDS011;1872;51.406;6.856;2022-11-20T14:55:32;27.20;;;17.47;;
3712;SDS011;1872;51.406;6.856;2022-11-20T14:58:06;31.37;;;17.40;;
3712;SDS011;1872;51.406;6.856;2022-11-20T15:00:56;29.07;;;16.57;;
3712;SDS011;1872;51.406;6.856;2022-11-20T15:03:30;31.50;;;17.77;;
3712;SDS011;1872;51.406;6.856;2022-11-20T15:06:06;29.70;;;16.40;;
3712;SDS011;1872;51.406;6.856;2022-11-20T15:08:34;38.13;;;18.60;;
3712;SDS011;1872;51.406;6.856;2022-11-20T15:10:59;25.43;;;17.60;;
3712;SDS011;1872;51.406;6.856;2022-11-20T15:13:36;32.90;;;18.60;;
3712;SDS011;1872;51.406;6.856;2022-11-20T15:16:04;27.83;;;18.00;;
3712;SDS011;1872;51.406;6.856;2022-11-20T15:18:43;31.57;;;19.00;;
3712;SDS011;1872;51.406;6.856;2022-11-20T15:21:10;28.93;;;17.33;;
3712;SDS011;1872;51.406;6.856;2022-11-20T15:23:37;31.83;;;19.57;;
3712;SDS011;1872;51.406;6.856;2022-11-20T15:26:06;33.10;;;19.30;;
3712;SDS011;1872;51.406;6.856;2022-11-20T15:28:34;29.43;;;19.37;;
3712;SDS011;1872;51.406;6.856;2022-11-20T15:31:02;31.10;;;18.60;;
3712;SDS011;1872;51.406;6.856;2022-11-20T15:33:29;28.90;;;18.50;;
3712;SDS011;1872;51.406;6.856;2022-11-20T15:35:55;33.17;;;19.83;;
3712;SDS011;1872;51.406;6.856;2022-11-20T15:38:21;28.23;;;18.50;;
3712;SDS011;1872;51.406;6.856;2022-11-20T15:40:47;32.40;;;19.73;;
3712;SDS011;1872;51.406;6.856;2022-11-20T15:43:13;34.13;;;20.40;;
3712;SDS011;1872;51.406;6.856;2022-11-20T15:45:46;34.27;;;19.80;;
3712;SDS011;1872;51.406;6.856;2022-11-20T15:48:16;30.27;;;18.67;;
3712;SDS011;1872;51.406;6.856;2022-11-20T15:53:37;30.97;;;19.70;;
3712;SDS011;1872;51.406;6.856;2022-11-20T15:56:04;32.80;;;19.90;;
3712;SDS011;1872;51.406;6.856;2022-11-20T15:58:30;32.23;;;17.53;;
3712;SDS011;1872;51.406;6.856;2022-11-20T16:00:55;31.97;;;18.07;;
3712;SDS011;1872;51.406;6.856;2022-11-20T16:03:22;31.70;;;19.70;;
3712;SDS011;1872;51.406;6.856;2022-11-20T16:05:48;32.17;;;19.80;;
3712;SDS011;1872;51.406;6.856;2022-11-20T16:08:14;35.03;;;19.87;;
3712;SDS011;1872;51.406;6.856;2022-11-20T16:10:40;30.00;;;19.97;;
3712;SDS011;1872;51.406;6.856;2022-11-20T16:13:12;36.40;;;21.87;;
3712;SDS011;1872;51.406;6.856;2022-11-20T16:15:57;38.17;;;21.87;;
3712;SDS011;1872;51.406;6.856;2022-11-20T16:18:24;31.57;;;20.60;;
3712;SDS011;1872;51.406;6.856;2022-11-20T16:20:51;29.67;;;19.53;;
3712;SDS011;1872;51.406;6.856;2022-11-20T16:23:18;34.57;;;18.83;;
3712;SDS011;1872;51.406;6.856;2022-11-20T16:25:45;30.37;;;18.90;;
3712;SDS011;1872;51.406;6.856;2022-11-20T16:28:11;27.40;;;17.53;;
3712;SDS011;1872;51.406;6.856;2022-11-20T16:30:37;28.90;;;17.47;;
3712;SDS011;1872;51.406;6.856;2022-11-20T16:33:03;31.67;;;18.60;;
3712;SDS011;1872;51.406;6.856;2022-11-20T16:35:34;30.00;;;17.00;;
3712;SDS011;1872;51.406;6.856;2022-11-20T16:37:59;30.00;;;17.20;;
3712;SDS011;1872;51.406;6.856;2022-11-20T16:40:25;26.33;;;17.70;;